RA250 VNLK-VNLK
Flight info
| Callsign | RA250 |
|---|---|
| Flight time | N/A |
| Altitude | 10000 |
| Route | DCT |
| Aircraft | B350/L-VGDW/C |
Departure
| Time | 2025-11-26 14:09 |
|---|---|
| Airport | Tenzing-Hillary Airport (VNLK) |
Arrival
| Time | N/A |
|---|---|
| Airport | Tenzing-Hillary Airport (VNLK) |
| Time | Latitude | Longitude | Altitude | Speed | Heading |
|---|---|---|---|---|---|
| 2025-11-26 14:07 | 27.68786 | 86.73153 | 9433 ft | 4 kts | 239° |
| 2025-11-26 14:08 | 27.69378 | 86.70074 | 10453 ft | 154 kts | 11° |
| 2025-11-26 14:09 | 27.71448 | 86.70536 | 11765 ft | 140 kts | 20° |
| 2025-11-26 14:09 | 27.73465 | 86.71011 | 12662 ft | 164 kts | 359° |
| 2025-11-26 14:10 | 27.75866 | 86.71232 | 13568 ft | 183 kts | 11° |
| 2025-11-26 14:11 | 27.79779 | 86.72378 | 14794 ft | 195 kts | 18° |
| 2025-11-26 14:11 | 27.82223 | 86.74370 | 13515 ft | 240 kts | 54° |
| 2025-11-26 14:11 | 27.83432 | 86.75103 | 13917 ft | 181 kts | 353° |
| 2025-11-26 14:12 | 27.81649 | 86.73470 | 12623 ft | 144 kts | 204° |
| 2025-11-26 14:13 | 27.80312 | 86.72249 | 12249 ft | 117 kts | 296° |
| 2025-11-26 14:14 | 27.82941 | 86.73152 | 13657 ft | 149 kts | 21° |
| 2025-11-26 14:14 | 27.83779 | 86.73743 | 14159 ft | 151 kts | 33° |
| 2025-11-26 14:16 | 27.84916 | 86.74149 | 14796 ft | 146 kts | 352° |
| 2025-11-26 14:17 | 27.88145 | 86.73712 | 16442 ft | 164 kts | 358° |
| 2025-11-26 14:17 | 27.89281 | 86.73907 | 16998 ft | 169 kts | 18° |
| 2025-11-26 14:18 | 27.92612 | 86.75111 | 18618 ft | 166 kts | 36° |
| 2025-11-26 14:18 | 27.94176 | 86.77404 | 19106 ft | 205 kts | 76° |
| 2025-11-26 14:19 | 27.94300 | 86.80723 | 20046 ft | 206 kts | 82° |
| 2025-11-26 14:19 | 27.94526 | 86.83913 | 21161 ft | 209 kts | 89° |
| 2025-11-26 14:19 | 27.94493 | 86.85588 | 21508 ft | 218 kts | 96° |
| 2025-11-26 14:20 | 27.94227 | 86.89075 | 22397 ft | 221 kts | 94° |
| 2025-11-26 14:21 | 27.94155 | 86.94490 | 23934 ft | 229 kts | 90° |
| 2025-11-26 14:21 | 27.94349 | 86.96171 | 24620 ft | 207 kts | 66° |
| 2025-11-26 14:23 | 27.96962 | 86.93480 | 25135 ft | 22 kts | 271° |
| 2025-11-26 14:23 | 27.96961 | 86.93586 | 24946 ft | 9 kts | 270° |